Time;durP1;ratioP1;P1;durP2;ratioP2;P2;SDS_P1;SDS_P2;PMS_P1;PMS_P2;Temp;Humidity;BMP_temperature;BMP_pressure;BME280_temperature;BME280_humidity;BME280_pressure;Samples;Min_cycle;Max_cycle;Signal;HPM_P1;HPM_P2
2023/08/20 00:00:14;;;;;;;2.78;1.50;;;;;;;22.54;60.39;100003.06;4260615;33;20166;-92
2023/08/20 00:02:41;;;;;;;0.75;0.68;;;;;;;22.70;60.40;100003.53;4272381;33;20460;-92
2023/08/20 00:05:07;;;;;;;1.27;0.93;;;;;;;22.62;60.39;99998.00;4260603;33;20190;-92
2023/08/20 00:07:33;;;;;;;10.23;1.00;;;;;;;22.82;60.41;99992.00;4260469;33;20441;-92
2023/08/20 00:09:58;;;;;;;0.68;0.68;;;;;;;22.80;60.40;99995.72;4260481;33;20680;-93
2023/08/20 00:12:25;;;;;;;0.47;0.47;;;;;;;22.51;60.40;99993.53;4260422;33;20329;-92
2023/08/20 00:15:07;;;;;;;0.40;0.40;;;;;;;22.66;60.40;99991.50;4260457;33;20694;-93
2023/08/20 00:17:37;;;;;;;0.43;0.43;;;;;;;22.65;60.39;99987.16;4271175;33;20116;-92
2023/08/20 00:20:12;;;;;;;0.82;0.82;;;;;;;22.54;60.39;99992.47;4260402;33;20447;-91
2023/08/20 00:22:38;;;;;;;11.15;1.83;;;;;;;22.72;60.40;99991.03;4260289;33;20121;-92
2023/08/20 00:25:05;;;;;;;0.57;0.47;;;;;;;22.62;60.39;99979.44;4260338;33;20109;-93
2023/08/20 00:27:30;;;;;;;0.35;0.35;;;;;;;22.75;60.40;99979.31;4260308;33;20105;-92
2023/08/20 00:29:56;;;;;;;1.42;0.95;;;;;;;22.74;60.41;99988.25;4260309;33;20127;-92
2023/08/20 00:32:21;;;;;;;3.08;2.22;;;;;;;22.70;60.40;99984.97;4260247;33;20144;-92
2023/08/20 00:34:47;;;;;;;0.70;0.70;;;;;;;22.63;60.39;99981.97;4260514;33;20199;-92
2023/08/20 00:37:12;;;;;;;0.40;0.40;;;;;;;22.68;60.40;99986.91;4260264;33;20109;-92
2023/08/20 00:39:38;;;;;;;2.17;1.85;;;;;;;22.75;60.40;99977.50;4260293;33;20123;-92
2023/08/20 00:42:04;;;;;;;1.10;0.82;;;;;;;22.62;60.39;99982.09;4260280;33;20139;-92
2023/08/20 00:44:30;;;;;;;1.17;0.85;;;;;;;22.72;60.40;99980.41;4260457;33;20118;-92
2023/08/20 00:46:55;;;;;;;0.43;0.43;;;;;;;22.87;60.40;99984.53;4272110;33;20114;-92
2023/08/20 00:49:21;;;;;;;0.30;0.30;;;;;;;22.94;60.41;99983.06;4260252;33;20127;-92
2023/08/20 00:51:46;;;;;;;0.77;0.65;;;;;;;22.93;60.41;99978.72;4260419;33;20094;-92
2023/08/20 00:54:12;;;;;;;0.22;0.22;;;;;;;22.71;60.40;99977.84;4260261;33;20162;-92
2023/08/20 00:56:37;;;;;;;0.70;0.70;;;;;;;22.56;60.39;99982.56;4260124;33;20140;-92
2023/08/20 00:59:04;;;;;;;0.52;0.52;;;;;;;22.59;60.40;99979.66;4260249;33;20110;-92
2023/08/20 01:01:29;;;;;;;1.17;0.77;;;;;;;22.56;60.38;99986.06;4260047;33;20094;-92
2023/08/20 01:03:55;;;;;;;0.60;0.57;;;;;;;22.95;60.41;99976.81;4248278;33;20173;-92
2023/08/20 01:06:46;;;;;;;4.37;0.82;;;;;;;22.88;60.41;99988.88;4247945;33;20102;-92
2023/08/20 01:09:21;;;;;;;0.10;0.10;;;;;;;22.81;60.41;99987.66;4246119;33;20111;-92
2023/08/20 01:11:49;;;;;;;0.13;0.13;;;;;;;22.69;60.40;99983.28;4260354;33;20153;-92
2023/08/20 01:14:16;;;;;;;1.33;1.23;;;;;;;22.49;60.38;99989.31;4248389;33;20109;-92
2023/08/20 01:16:41;;;;;;;0.10;0.10;;;;;;;22.36;60.38;99990.25;4248451;33;20070;-92
2023/08/20 01:19:07;;;;;;;0.93;0.77;;;;;;;22.73;60.41;99984.75;4248418;33;20124;-92
2023/08/20 01:21:39;;;;;;;0.70;0.50;;;;;;;22.46;60.38;99989.53;4248141;33;20165;-92
2023/08/20 01:24:14;;;;;;;0.20;0.20;;;;;;;22.67;60.40;99991.38;4260155;33;20161;-92
2023/08/20 01:27:01;;;;;;;0.62;0.62;;;;;;;22.74;60.41;99991.75;4260068;33;20510;-92
2023/08/20 01:29:26;;;;;;;0.28;0.28;;;;;;;22.36;60.38;100000.88;4247707;33;20109;-92
2023/08/20 01:31:53;;;;;;;0.57;0.55;;;;;;;22.41;60.38;99995.19;4248046;33;20090;-92
2023/08/20 01:34:18;;;;;;;0.30;0.30;;;;;;;22.73;60.41;99998.03;4248134;33;20109;-92
2023/08/20 01:36:44;;;;;;;0.55;0.55;;;;;;;22.65;60.40;100006.56;4248201;33;20345;-91
2023/08/20 01:39:09;;;;;;;0.40;0.40;;;;;;;22.66;60.40;100004.75;4248164;33;20173;-92
2023/08/20 01:41:35;;;;;;;2.30;2.10;;;;;;;22.54;60.39;100003.91;4248143;33;20097;-93
2023/08/20 01:44:01;;;;;;;1.17;0.77;;;;;;;22.11;60.36;100008.16;4248127;33;20101;-92
2023/08/20 01:46:26;;;;;;;0.43;0.43;;;;;;;22.14;60.37;100003.47;4248025;33;20105;-92
2023/08/20 01:48:51;;;;;;;1.83;1.67;;;;;;;22.25;60.37;100010.63;4248131;33;20090;-92
2023/08/20 01:51:17;;;;;;;0.30;0.30;;;;;;;22.26;60.38;99999.91;4248094;33;20146;-92
2023/08/20 01:53:42;;;;;;;0.50;0.25;;;;;;;22.21;60.37;99999.38;4247986;33;20478;-92
2023/08/20 01:56:12;;;;;;;0.62;0.47;;;;;;;22.18;60.38;99999.63;4247781;33;20086;-92
2023/08/20 01:58:38;;;;;;;0.37;0.37;;;;;;;22.17;60.36;100005.88;4259871;33;20161;-92
2023/08/20 02:01:03;;;;;;;1.35;1.27;;;;;;;22.40;60.38;100003.28;4247818;33;20090;-93
2023/08/20 02:03:29;;;;;;;0.13;0.13;;;;;;;22.20;60.38;100005.66;4257837;33;20131;-92
2023/08/20 02:05:54;;;;;;;0.10;0.10;;;;;;;22.04;60.37;99995.38;4259839;33;20101;-92
2023/08/20 02:08:20;;;;;;;1.48;1.37;;;;;;;22.09;60.36;99999.47;4259693;33;20389;-92
2023/08/20 02:10:46;;;;;;;0.47;0.28;;;;;;;22.18;60.36;100002.25;4259652;33;20158;-92
2023/08/20 02:13:11;;;;;;;0.75;0.75;;;;;;;22.09;60.36;100000.31;4259812;33;20132;-92
2023/08/20 02:15:36;;;;;;;0.10;0.10;;;;;;;22.18;60.36;99996.97;4259556;33;20165;-92
2023/08/20 02:18:02;;;;;;;1.02;1.02;;;;;;;22.20;60.37;99999.50;4258392;33;20135;-92
2023/08/20 02:20:28;;;;;;;0.17;0.17;;;;;;;22.09;60.36;99995.03;4259628;33;20128;-93
2023/08/20 02:22:53;;;;;;;1.20;1.10;;;;;;;22.26;60.37;99996.41;4259432;33;20110;-92
2023/08/20 02:25:19;;;;;;;1.67;1.58;;;;;;;22.40;60.38;99982.91;4259569;33;20183;-92
2023/08/20 02:27:44;;;;;;;1.00;0.77;;;;;;;22.20;60.37;99991.53;4259415;33;20230;-92
2023/08/20 02:30:13;;;;;;;0.28;0.28;;;;;;;22.24;60.37;99996.53;4259500;33;20134;-93
2023/08/20 02:32:38;;;;;;;0.10;0.10;;;;;;;22.20;60.37;99995.03;4259408;33;20178;-92
2023/08/20 02:35:05;;;;;;;2.17;1.80;;;;;;;22.23;60.37;99997.44;4259278;33;20162;-91
2023/08/20 02:37:31;;;;;;;4.32;0.70;;;;;;;22.19;60.36;100000.47;4259319;33;20121;-92
2023/08/20 02:39:57;;;;;;;0.82;0.47;;;;;;;22.33;60.38;99998.47;4259306;33;20102;-92
2023/08/20 02:42:22;;;;;;;2.58;1.50;;;;;;;22.15;60.37;99993.72;4259210;33;20113;-92
2023/08/20 02:44:48;;;;;;;3.28;1.33;;;;;;;22.24;60.37;99988.56;4259292;33;20145;-92
2023/08/20 02:47:13;;;;;;;0.13;0.13;;;;;;;22.40;60.38;99984.72;4259151;33;20436;-92
2023/08/20 02:49:39;;;;;;;1.33;0.82;;;;;;;22.50;60.38;99983.06;4259117;33;20171;-92
2023/08/20 02:52:04;;;;;;;0.77;0.77;;;;;;;22.41;60.38;99984.59;4259151;33;20358;-92
2023/08/20 02:54:31;;;;;;;3.40;1.23;;;;;;;22.30;60.37;99992.53;4259126;33;20149;-92
2023/08/20 02:56:58;;;;;;;3.30;0.80;;;;;;;22.20;60.37;99984.44;4259193;33;20105;-92
2023/08/20 02:59:23;;;;;;;2.60;0.98;;;;;;;22.07;60.37;99990.81;4270881;33;20093;-92
2023/08/20 03:01:49;;;;;;;0.82;0.82;;;;;;;22.17;60.37;99992.63;4258711;33;20106;-92
2023/08/20 03:04:14;;;;;;;0.55;0.40;;;;;;;22.14;60.37;99992.84;4259015;33;20177;-92
2023/08/20 03:06:40;;;;;;;1.70;0.52;;;;;;;22.02;60.36;99985.81;4259032;33;20129;-91
2023/08/20 03:09:05;;;;;;;0.22;0.22;;;;;;;21.80;60.34;99994.53;4258872;33;20106;-92
2023/08/20 03:11:31;;;;;;;0.68;0.68;;;;;;;21.89;60.36;99990.34;4259036;33;20140;-92
2023/08/20 03:13:56;;;;;;;0.85;0.60;;;;;;;21.93;60.35;99987.34;4259010;33;20139;-92
2023/08/20 03:16:22;;;;;;;1.20;1.15;;;;;;;21.97;60.36;99995.91;4258868;33;20463;-92
2023/08/20 03:18:48;;;;;;;1.45;1.00;;;;;;;21.99;60.36;99996.62;4258808;33;20116;-92
2023/08/20 03:21:13;;;;;;;1.20;0.50;;;;;;;22.03;60.37;99993.66;4258985;33;20149;-92
2023/08/20 03:23:38;;;;;;;1.25;0.75;;;;;;;21.83;60.35;100004.06;4258815;33;20113;-92
2023/08/20 03:26:04;;;;;;;1.92;1.30;;;;;;;21.98;60.36;100002.87;4258752;33;20175;-92
2023/08/20 03:28:29;;;;;;;0.52;0.47;;;;;;;22.29;60.38;99999.66;4258804;33;20138;-92
2023/08/20 03:30:55;;;;;;;1.15;1.02;;;;;;;22.04;60.36;100000.69;4260276;33;20118;-92
2023/08/20 03:33:20;;;;;;;0.98;0.98;;;;;;;22.07;60.36;99998.75;4260608;33;20132;-93
2023/08/20 03:35:46;;;;;;;1.27;1.17;;;;;;;22.14;60.37;100010.56;4260526;33;20137;-92
2023/08/20 03:38:11;;;;;;;0.20;0.20;;;;;;;22.04;60.36;100003.31;4260827;33;20121;-92
2023/08/20 03:40:37;;;;;;;0.30;0.30;;;;;;;21.90;60.36;100002.63;4272695;33;20135;-92
2023/08/20 03:43:02;;;;;;;0.93;0.62;;;;;;;21.82;60.35;100016.47;4260691;33;20426;-93
2023/08/20 03:45:28;;;;;;;1.05;1.05;;;;;;;21.82;60.35;100011.16;4260609;33;20097;-92
2023/08/20 03:47:53;;;;;;;0.88;0.85;;;;;;;21.82;60.35;100013.81;4260711;33;20142;-92
2023/08/20 03:50:19;;;;;;;0.60;0.60;;;;;;;21.85;60.36;100015.38;4260523;33;20139;-92
2023/08/20 03:52:44;;;;;;;0.40;0.40;;;;;;;21.88;60.36;100021.31;4260335;33;20140;-92
2023/08/20 03:55:09;;;;;;;0.50;0.50;;;;;;;22.16;60.37;100028.06;4260422;33;20155;-92
2023/08/20 03:57:35;;;;;;;0.22;0.22;;;;;;;21.93;60.35;100031.56;4260821;33;20191;-92
2023/08/20 04:00:00;;;;;;;0.57;0.55;;;;;;;21.97;60.36;100025.06;4260669;33;20106;-92
2023/08/20 04:02:26;;;;;;;0.85;0.82;;;;;;;22.26;60.38;100026.41;4260450;33;20105;-92
2023/08/20 04:04:51;;;;;;;0.60;0.55;;;;;;;22.35;60.38;100027.50;4260407;33;20142;-92
2023/08/20 04:07:17;;;;;;;0.30;0.30;;;;;;;22.22;60.38;100027.59;4260542;33;20119;-92
2023/08/20 04:09:43;;;;;;;1.45;0.82;;;;;;;21.94;60.35;100027.94;4260581;33;20114;-92
2023/08/20 04:12:08;;;;;;;2.45;1.17;;;;;;;21.85;60.35;100031.28;4260471;33;20119;-92
2023/08/20 04:14:34;;;;;;;0.77;0.77;;;;;;;21.99;60.36;100033.75;4260603;33;20179;-92
2023/08/20 04:16:59;;;;;;;0.15;0.15;;;;;;;21.97;60.36;100035.66;4260483;33;20132;-93
2023/08/20 04:19:25;;;;;;;13.90;1.75;;;;;;;21.96;60.36;100032.16;4260139;33;20161;-92
2023/08/20 04:21:51;;;;;;;0.57;0.52;;;;;;;21.95;60.36;100030.47;4272344;33;20173;-93
2023/08/20 04:24:16;;;;;;;0.45;0.45;;;;;;;22.06;60.36;100029.72;4260459;33;20162;-92
2023/08/20 04:26:43;;;;;;;0.52;0.52;;;;;;;22.51;60.39;100030.69;4260302;33;20097;-92
2023/08/20 04:29:09;;;;;;;2.83;0.77;;;;;;;22.59;60.39;100032.75;4260515;33;20109;-92
2023/08/20 04:31:34;;;;;;;0.30;0.30;;;;;;;22.42;60.37;100030.53;4260209;33;20132;-92
2023/08/20 04:34:00;;;;;;;1.75;1.55;;;;;;;22.41;60.38;100034.16;4260352;33;20145;-92
2023/08/20 04:36:25;;;;;;;2.53;0.60;;;;;;;22.46;60.38;100043.44;4260337;33;20128;-92
2023/08/20 04:38:50;;;;;;;0.95;0.95;;;;;;;22.72;60.39;100038.81;4260424;33;20110;-92
2023/08/20 04:41:16;;;;;;;0.25;0.20;;;;;;;22.82;60.40;100037.13;4259640;33;20094;-93
2023/08/20 04:43:41;;;;;;;0.55;0.52;;;;;;;22.59;60.39;100038.88;4260041;33;20128;-92
2023/08/20 04:46:08;;;;;;;0.17;0.17;;;;;;;22.76;60.40;100036.75;4260468;33;20124;-93
2023/08/20 04:48:33;;;;;;;2.75;1.12;;;;;;;22.56;60.38;100039.12;4260373;33;20102;-92
2023/08/20 04:51:00;;;;;;;0.20;0.20;;;;;;;22.59;60.39;100046.00;4260182;33;20119;-92
2023/08/20 04:53:25;;;;;;;1.45;0.50;;;;;;;22.59;60.39;100043.34;4260308;33;20071;-92
2023/08/20 04:55:51;;;;;;;0.70;0.68;;;;;;;22.56;60.38;100041.78;4260117;33;20436;-93
2023/08/20 04:58:16;;;;;;;0.73;0.73;;;;;;;22.62;60.39;100048.41;4271899;33;20254;-93
2023/08/20 05:00:42;;;;;;;0.90;0.90;;;;;;;22.85;60.40;100047.50;4260279;33;20109;-93
2023/08/20 05:03:07;;;;;;;0.20;0.20;;;;;;;23.00;60.41;100040.16;4260025;33;20128;-92
2023/08/20 05:05:33;;;;;;;0.17;0.17;;;;;;;23.09;60.41;100046.53;4260101;33;20368;-93
2023/08/20 05:07:58;;;;;;;0.68;0.68;;;;;;;22.94;60.41;100045.94;4260262;33;20117;-92
2023/08/20 05:10:24;;;;;;;0.80;0.65;;;;;;;23.11;60.41;100053.41;4271933;33;20147;-92
2023/08/20 05:12:49;;;;;;;0.60;0.57;;;;;;;23.09;60.41;100050.03;4271874;33;20093;-93
2023/08/20 05:15:15;;;;;;;0.55;0.55;;;;;;;23.23;60.42;100043.66;4260102;33;20125;-92
2023/08/20 05:17:40;;;;;;;0.50;0.50;;;;;;;23.19;60.41;100045.72;4260099;33;20102;-93
2023/08/20 05:20:06;;;;;;;1.30;0.77;;;;;;;23.41;60.43;100049.28;4260170;33;20128;-93
2023/08/20 05:22:31;;;;;;;0.50;0.50;;;;;;;23.40;60.43;100045.78;4271860;33;20124;-91
2023/08/20 05:24:57;;;;;;;0.30;0.30;;;;;;;23.40;60.43;100047.59;4259982;33;20105;-92
2023/08/20 05:27:22;;;;;;;0.35;0.35;;;;;;;23.68;60.45;100040.94;4260036;33;20117;-92
2023/08/20 05:29:48;;;;;;;1.73;0.95;;;;;;;23.68;60.45;100041.78;4259981;33;20090;-92
2023/08/20 05:32:14;;;;;;;0.20;0.20;;;;;;;23.83;60.46;100042.31;4260110;33;20152;-92
2023/08/20 05:34:40;;;;;;;0.30;0.30;;;;;;;23.94;60.46;100049.41;4260035;33;20089;-92
2023/08/20 05:37:05;;;;;;;0.43;0.40;;;;;;;24.06;60.46;100043.91;4260052;33;20118;-92
2023/08/20 05:39:40;;;;;;;1.05;0.93;;;;;;;24.13;60.46;100050.44;4259961;33;20113;-92
2023/08/20 05:42:06;;;;;;;0.43;0.43;;;;;;;24.47;60.48;100040.47;4259075;33;20094;-92
2023/08/20 05:44:31;;;;;;;0.85;0.85;;;;;;;24.62;60.50;100043.66;4259952;33;20106;-93
2023/08/20 05:46:57;;;;;;;0.43;0.43;;;;;;;24.77;60.50;100044.97;4259999;33;20177;-92
2023/08/20 05:49:22;;;;;;;0.75;0.75;;;;;;;24.91;60.50;100050.94;4259741;33;20109;-92
2023/08/20 05:51:48;;;;;;;0.37;0.35;;;;;;;24.97;60.51;100053.06;4259725;33;20106;-93
2023/08/20 05:54:13;;;;;;;0.47;0.47;;;;;;;24.89;60.51;100048.41;4259798;33;20109;-92
2023/08/20 05:56:39;;;;;;;1.25;1.12;;;;;;;25.06;60.51;100055.78;4259694;33;20114;-92
2023/08/20 05:59:04;;;;;;;3.72;1.40;;;;;;;25.19;60.52;100054.72;4259876;33;20109;-92
2023/08/20 06:01:29;;;;;;;0.50;0.50;;;;;;;25.42;60.54;100050.87;4259589;33;20378;-92
2023/08/20 06:03:55;;;;;;;0.40;0.40;;;;;;;25.21;60.52;100064.25;4247928;33;20376;-92
2023/08/20 06:06:21;;;;;;;21.02;1.52;;;;;;;25.34;60.54;100062.22;4247742;33;20191;-92
2023/08/20 06:08:46;;;;;;;0.77;0.77;;;;;;;25.33;60.53;100063.19;4247941;33;20126;-92
2023/08/20 06:11:12;;;;;;;9.32;2.62;;;;;;;25.67;60.55;100071.72;4247735;33;20133;-92
2023/08/20 06:13:37;;;;;;;4.00;0.73;;;;;;;25.54;60.54;100070.22;4247677;33;20200;-93
2023/08/20 06:16:03;;;;;;;0.88;0.85;;;;;;;25.79;60.55;100071.56;4247899;33;20512;-92
2023/08/20 06:18:28;;;;;;;0.57;0.55;;;;;;;25.79;60.56;100072.44;4247646;33;20156;-92
2023/08/20 06:20:54;;;;;;;0.57;0.57;;;;;;;26.14;60.57;100071.03;4247443;33;20115;-92
2023/08/20 06:23:19;;;;;;;1.85;1.02;;;;;;;26.27;60.59;100077.78;4247696;33;20098;-92
2023/08/20 06:25:45;;;;;;;0.43;0.43;;;;;;;26.37;60.58;100074.28;4247338;33;20105;-93
2023/08/20 06:28:11;;;;;;;0.20;0.20;;;;;;;26.59;60.59;100076.66;4247583;33;20086;-93
2023/08/20 06:30:37;;;;;;;0.32;0.32;;;;;;;26.66;60.60;100071.56;4247322;33;20137;-92
2023/08/20 06:33:02;;;;;;;0.32;0.32;;;;;;;26.83;60.61;100070.81;4247588;33;20102;-93
2023/08/20 06:35:28;;;;;;;0.57;0.55;;;;;;;26.93;60.61;100060.94;4247313;33;20125;-92
2023/08/20 06:37:53;;;;;;;0.28;0.28;;;;;;;26.87;60.60;100067.72;4247399;33;20118;-92
2023/08/20 06:40:19;;;;;;;0.43;0.43;;;;;;;27.13;60.62;100059.91;4247352;33;20092;-92
2023/08/20 06:42:44;;;;;;;0.22;0.22;;;;;;;27.26;60.63;100058.75;4247375;33;20089;-93
2023/08/20 06:45:10;;;;;;;0.45;0.45;;;;;;;27.58;60.64;100056.44;4247243;33;20182;-94
2023/08/20 06:47:35;;;;;;;0.65;0.45;;;;;;;27.45;60.64;100064.00;4247418;33;20147;-93
2023/08/20 06:50:01;;;;;;;0.45;0.45;;;;;;;27.64;60.64;100066.56;4247092;33;20125;-92
2023/08/20 06:52:26;;;;;;;9.45;0.70;;;;;;;27.81;60.65;100060.38;4247314;33;20090;-93
2023/08/20 06:54:52;;;;;;;10.32;1.95;;;;;;;27.75;60.65;100061.00;4247434;33;20106;-93
2023/08/20 06:57:17;;;;;;;11.10;0.57;;;;;;;27.80;60.66;100057.87;4247245;33;20349;-92
2023/08/20 06:59:43;;;;;;;0.57;0.57;;;;;;;27.92;60.67;100053.97;4247228;33;20101;-93
2023/08/20 07:02:09;;;;;;;0.57;0.57;;;;;;;28.16;60.68;100056.03;4249360;33;20440;-92
2023/08/20 07:04:35;;;;;;;3.97;0.50;;;;;;;28.10;60.67;100065.50;4259665;33;20126;-92
2023/08/20 07:07:00;;;;;;;0.62;0.62;;;;;;;28.29;60.68;100058.34;4260809;33;20140;-92
2023/08/20 07:09:26;;;;;;;0.30;0.30;;;;;;;28.48;60.69;100055.47;4248910;33;20123;-93
2023/08/20 07:11:51;;;;;;;1.00;0.52;;;;;;;28.57;60.70;100056.34;4260700;33;20135;-93
2023/08/20 07:14:17;;;;;;;0.37;0.37;;;;;;;28.61;60.70;100063.06;4272672;33;20174;-92
2023/08/20 07:16:42;;;;;;;0.32;0.32;;;;;;;28.69;60.70;100052.44;4260773;33;20165;-92
2023/08/20 07:19:08;;;;;;;1.25;0.95;;;;;;;28.71;60.71;100059.31;4260847;33;20477;-94
2023/08/20 07:21:33;;;;;;;1.35;1.25;;;;;;;28.91;60.71;100061.81;4260802;33;20383;-94
2023/08/20 07:23:58;;;;;;;1.98;1.02;;;;;;;29.13;60.73;100066.63;4260756;33;20140;-92
2023/08/20 07:26:24;;;;;;;1.52;1.15;;;;;;;29.10;60.71;100066.06;4260768;33;20105;-92
2023/08/20 07:28:59;;;;;;;0.68;0.15;;;;;;;29.21;60.73;100060.44;4260730;33;20120;-93
2023/08/20 07:31:29;;;;;;;2.08;0.98;;;;;;;29.22;60.72;100067.47;4260795;33;20089;-93
2023/08/20 07:33:55;;;;;;;0.60;0.60;;;;;;;29.23;60.73;100064.63;4260676;33;20074;-93
2023/08/20 07:36:24;;;;;;;0.73;0.30;;;;;;;29.40;60.73;100068.22;4272604;33;20109;-94
2023/08/20 07:38:50;;;;;;;0.45;0.45;;;;;;;29.23;60.73;100066.47;4272470;33;20093;-93
2023/08/20 07:41:16;;;;;;;0.28;0.28;;;;;;;29.47;60.74;100063.91;4272763;33;20110;-94
2023/08/20 07:43:41;;;;;;;0.50;0.50;;;;;;;29.62;60.75;100072.19;4260842;33;20106;-93
2023/08/20 07:46:07;;;;;;;0.15;0.15;;;;;;;29.76;60.76;100062.62;4260716;33;20136;-93
2023/08/20 07:48:33;;;;;;;0.45;0.45;;;;;;;29.76;60.76;100078.75;4260662;33;20142;-93
2023/08/20 07:50:59;;;;;;;0.82;0.80;;;;;;;29.78;60.76;100077.56;4260666;33;20086;-93
2023/08/20 07:53:24;;;;;;;1.00;0.95;;;;;;;29.85;60.76;100072.41;4260533;33;20154;-92
2023/08/20 07:55:49;;;;;;;0.55;0.47;;;;;;;29.98;60.78;100071.91;4260685;33;20110;-93
2023/08/20 07:58:15;;;;;;;0.50;0.50;;;;;;;30.01;60.77;100069.72;4260569;33;20150;-93
2023/08/20 08:00:40;;;;;;;0.57;0.57;;;;;;;29.98;60.78;100066.53;4260489;33;20154;-93
2023/08/20 08:03:06;;;;;;;1.27;1.17;;;;;;;29.82;60.77;100067.37;4260597;33;20149;-93
2023/08/20 08:05:31;;;;;;;5.43;1.00;;;;;;;29.72;60.76;100077.41;4260653;33;20117;-93
2023/08/20 08:07:57;;;;;;;1.30;1.20;;;;;;;29.73;60.75;100079.06;4260350;33;20162;-93
2023/08/20 08:10:22;;;;;;;1.08;0.82;;;;;;;29.85;60.77;100075.09;4272318;33;20179;-93
2023/08/20 08:12:48;;;;;;;0.55;0.55;;;;;;;29.74;60.76;100081.59;4260641;33;20140;-93
2023/08/20 08:15:13;;;;;;;0.60;0.60;;;;;;;29.75;60.76;100080.59;4260153;33;20114;-93
2023/08/20 08:17:39;;;;;;;0.40;0.40;;;;;;;29.79;60.76;100075.72;4260042;33;20567;-91
2023/08/20 08:20:05;;;;;;;0.55;0.45;;;;;;;29.84;60.76;100074.25;4260683;33;20120;-93
2023/08/20 08:22:30;;;;;;;7.55;3.60;;;;;;;29.95;60.77;100073.06;4260322;33;20125;-92
2023/08/20 08:24:56;;;;;;;0.28;0.28;;;;;;;30.21;60.79;100075.63;4260528;33;20130;-92
2023/08/20 08:27:21;;;;;;;0.62;0.62;;;;;;;30.34;60.78;100075.16;4272348;33;20154;-93
2023/08/20 08:29:47;;;;;;;0.40;0.40;;;;;;;30.23;60.78;100074.47;4260317;33;20496;-92
2023/08/20 08:32:12;;;;;;;0.85;0.80;;;;;;;30.47;60.80;100078.16;4260379;33;20169;-92
2023/08/20 08:34:37;;;;;;;1.85;0.93;;;;;;;30.59;60.80;100079.50;4260427;33;20477;-92
2023/08/20 08:37:03;;;;;;;0.22;0.22;;;;;;;30.84;60.81;100070.41;4257600;33;99867;-92
2023/08/20 08:39:28;;;;;;;0.95;0.75;;;;;;;31.02;60.82;100070.19;4248433;33;20463;-92
2023/08/20 08:42:04;;;;;;;3.75;2.00;;;;;;;31.26;60.83;100074.69;4260535;33;20365;-92
2023/08/20 08:44:33;;;;;;;0.65;0.65;;;;;;;31.30;60.84;100069.78;4259460;33;20762;-92
2023/08/20 08:46:59;;;;;;;9.63;2.43;;;;;;;31.51;60.85;100066.50;4260250;33;20113;-92
2023/08/20 08:49:26;;;;;;;2.25;1.08;;;;;;;31.69;60.86;100061.66;4260222;33;20177;-91
2023/08/20 08:51:52;;;;;;;0.62;0.60;;;;;;;31.77;60.86;100071.56;4260333;33;20109;-91
2023/08/20 08:54:17;;;;;;;0.10;0.10;;;;;;;31.71;60.86;100073.97;4260270;33;20102;-92
2023/08/20 08:56:43;;;;;;;0.68;0.68;;;;;;;31.88;60.86;100074.69;4260252;33;20246;-91
2023/08/20 08:59:08;;;;;;;1.42;1.33;;;;;;;31.90;60.87;100069.12;4260332;33;20093;-91
2023/08/20 09:01:38;;;;;;;1.45;0.73;;;;;;;31.80;60.86;100065.84;4260122;33;20106;-91
2023/08/20 09:04:03;;;;;;;;;;;;;;;31.98;60.87;100069.91;4248618;33;20090;-92
2023/08/20 09:06:29;;;;;;;0.63;0.63;;;;;;;31.91;60.87;100074.31;4260494;33;19989;-91
2023/08/20 09:09:03;;;;;;;0.73;0.73;;;;;;;32.11;60.87;100076.53;4248177;33;20116;-91
2023/08/20 09:11:35;;;;;;;2.50;0.73;;;;;;;32.14;60.88;100071.63;4260117;33;20133;-92
2023/08/20 09:14:00;;;;;;;1.17;0.95;;;;;;;32.25;60.88;100078.47;4248421;33;20174;-91
2023/08/20 09:16:26;;;;;;;1.08;0.85;;;;;;;32.43;60.89;100076.31;4248375;33;20403;-91
2023/08/20 09:18:51;;;;;;;2.78;1.12;;;;;;;32.55;60.90;100076.69;4248143;33;20102;-91
2023/08/20 09:21:17;;;;;;;0.50;0.50;;;;;;;32.70;60.91;100068.66;4248466;33;20106;-91
2023/08/20 09:23:45;;;;;;;1.10;1.00;;;;;;;32.74;60.91;100069.94;4248485;33;20157;-91
2023/08/20 09:26:11;;;;;;;1.00;0.73;;;;;;;32.93;60.91;100066.75;4248368;33;20492;-91
2023/08/20 09:28:43;;;;;;;0.88;0.88;;;;;;;32.96;60.92;100075.28;4247879;33;20145;-91
2023/08/20 09:31:09;;;;;;;2.58;1.45;;;;;;;32.90;60.92;100076.06;4248026;33;20066;-92
2023/08/20 09:33:34;;;;;;;0.73;0.73;;;;;;;33.09;60.92;100077.31;4248273;33;20169;-92
2023/08/20 09:36:00;;;;;;;0.20;0.20;;;;;;;33.09;60.92;100068.41;4248152;33;20117;-91
2023/08/20 09:38:26;;;;;;;3.40;1.02;;;;;;;33.17;60.93;100066.47;4248067;33;20145;-92
2023/08/20 09:40:52;;;;;;;1.23;1.12;;;;;;;33.30;60.94;100064.94;4248140;33;20114;-92
2023/08/20 09:43:18;;;;;;;2.97;1.35;;;;;;;33.36;60.94;100064.22;4259957;33;20118;-92
2023/08/20 09:45:46;;;;;;;1.65;0.30;;;;;;;33.44;60.95;100059.56;4248200;33;20141;-92
2023/08/20 09:48:11;;;;;;;0.43;0.43;;;;;;;33.65;60.95;100066.03;4248174;33;20094;-92
2023/08/20 09:50:37;;;;;;;1.10;0.77;;;;;;;33.67;60.96;100063.97;4248186;33;20109;-92
2023/08/20 09:53:39;;;;;;;0.47;0.40;;;;;;;33.69;60.96;100062.75;4248167;33;20110;-91
2023/08/20 09:56:28;;;;;;;0.45;0.45;;;;;;;33.66;60.96;100070.41;4223634;33;20058;-92
2023/08/20 09:58:54;;;;;;;0.95;0.77;;;;;;;33.78;60.96;100067.00;4259856;33;20110;-93
2023/08/20 10:01:19;;;;;;;2.08;0.88;;;;;;;33.81;60.96;100063.06;4247761;33;20546;-93
2023/08/20 10:03:45;;;;;;;1.08;0.60;;;;;;;34.08;60.98;100056.94;4259411;33;20118;-92
2023/08/20 10:06:11;;;;;;;0.75;0.55;;;;;;;34.20;60.98;100068.06;4259749;33;20488;-92
2023/08/20 10:08:36;;;;;;;1.17;1.00;;;;;;;34.33;60.99;100065.47;4259914;33;20097;-92
2023/08/20 10:11:02;;;;;;;1.23;1.12;;;;;;;34.15;60.98;100059.72;4259604;33;20139;-92
2023/08/20 10:13:27;;;;;;;1.48;1.37;;;;;;;34.16;60.99;100055.97;4259674;33;20189;-92
2023/08/20 10:15:54;;;;;;;2.58;1.10;;;;;;;34.25;60.99;100057.50;4259716;33;20113;-92
2023/08/20 10:18:20;;;;;;;1.00;0.60;;;;;;;34.12;60.98;100060.94;4259663;33;20179;-93
2023/08/20 10:20:46;;;;;;;0.37;0.37;;;;;;;34.27;60.99;100051.91;4259689;33;20161;-92
2023/08/20 10:23:12;;;;;;;0.32;0.32;;;;;;;34.23;60.99;100054.16;4259643;33;20464;-93
2023/08/20 10:25:40;;;;;;;0.90;0.75;;;;;;;34.39;60.99;100051.22;4259378;33;20118;-92
2023/08/20 10:28:14;;;;;;;9.13;2.22;;;;;;;34.50;61.00;100046.28;4259399;33;20114;-92
2023/08/20 10:31:10;;;;;;;0.68;0.68;;;;;;;34.72;61.01;100045.19;4259302;33;20109;-92
2023/08/20 10:33:48;;;;;;;0.82;0.60;;;;;;;34.62;61.00;100042.03;4257982;33;20242;-93
2023/08/20 10:36:27;;;;;;;1.87;1.75;;;;;;;34.57;61.01;100041.78;4258460;33;20121;-92
2023/08/20 10:38:56;;;;;;;1.15;1.05;;;;;;;34.70;61.02;100039.16;4270978;33;20124;-92
2023/08/20 10:41:28;;;;;;;0.62;0.62;;;;;;;34.92;61.01;100038.06;4261085;33;20099;-93
2023/08/20 10:43:57;;;;;;;0.70;0.70;;;;;;;35.12;61.03;100032.75;4260949;33;20144;-93
2023/08/20 10:46:23;;;;;;;1.20;0.80;;;;;;;35.08;61.03;100034.19;4261125;33;20522;-92
2023/08/20 10:48:55;;;;;;;0.45;0.45;;;;;;;35.04;61.03;100036.47;4260960;33;20102;-93
2023/08/20 10:51:33;;;;;;;1.65;1.55;;;;;;;35.06;61.03;100037.13;4272712;33;20129;-93
2023/08/20 10:54:03;;;;;;;0.88;0.88;;;;;;;34.98;61.03;100031.84;4272979;33;20170;-92
2023/08/20 10:56:51;;;;;;;;;;;;;;;35.03;61.03;100032.09;4273275;33;20470;-92
2023/08/20 10:59:17;;;;;;;0.40;0.40;;;;;;;35.07;61.03;100022.53;4272678;33;19977;-93
2023/08/20 11:01:47;;;;;;;0.20;0.20;;;;;;;35.27;61.05;100028.03;4272618;33;20125;-92
2023/08/20 11:04:13;;;;;;;;;;;;;;;35.07;61.03;100032.53;4249451;33;20745;-93
2023/08/20 11:06:39;;;;;;;0.45;0.45;;;;;;;35.23;61.04;100037.59;4260861;33;20040;-93
2023/08/20 11:09:05;;;;;;;0.75;0.75;;;;;;;35.22;61.05;100029.66;4249121;33;20149;-93
2023/08/20 11:11:31;;;;;;;0.90;0.90;;;;;;;35.36;61.05;100020.59;4249035;33;20177;-93
2023/08/20 11:13:57;;;;;;;0.65;0.62;;;;;;;35.27;61.04;100025.34;4249034;33;20106;-93
2023/08/20 11:16:22;;;;;;;1.40;1.10;;;;;;;35.59;61.06;100021.09;4248849;33;20141;-93
2023/08/20 11:18:48;;;;;;;1.02;0.93;;;;;;;35.65;61.06;100025.66;4249107;33;20098;-93
2023/08/20 11:21:13;;;;;;;0.50;0.32;;;;;;;35.62;61.06;100025.25;4248954;33;20178;-93
2023/08/20 11:23:41;;;;;;;0.30;0.30;;;;;;;35.71;61.07;100021.31;4248952;33;20118;-92